createdAt,value
2022-11-11T00:00:45.139Z,13.10
2022-11-11T00:03:31.750Z,13.80
2022-11-11T00:06:18.252Z,13.40
2022-11-11T00:09:06.389Z,14.10
2022-11-11T00:11:53.789Z,13.20
2022-11-11T00:14:40.848Z,12.20
2022-11-11T00:17:45.887Z,13.70
2022-11-11T00:20:51.432Z,13.30
2022-11-11T00:23:56.027Z,14.80
2022-11-11T00:26:42.979Z,13.60
2022-11-11T00:29:31.026Z,12.50
2022-11-11T00:32:31.551Z,13.20
2022-11-11T00:35:36.104Z,11.60
2022-11-11T00:38:40.463Z,12.90
2022-11-11T00:41:27.682Z,12.90
2022-11-11T00:44:13.765Z,13.40
2022-11-11T00:47:22.689Z,13.60
2022-11-11T00:50:35.835Z,14.70
2022-11-11T00:53:27.038Z,13.00
2022-11-11T00:56:13.497Z,13.20
2022-11-11T00:59:00.498Z,12.50
2022-11-11T01:01:47.006Z,13.10
2022-11-11T01:04:34.762Z,11.70
2022-11-11T01:07:20.446Z,11.10
2022-11-11T01:10:07.814Z,13.00
2022-11-11T01:13:12.087Z,10.90
2022-11-11T01:16:01.746Z,13.00
2022-11-11T01:18:48.524Z,9.70
2022-11-11T01:21:36.674Z,12.00
2022-11-11T01:24:22.974Z,9.10
2022-11-11T01:27:08.688Z,10.40
2022-11-11T01:29:55.686Z,10.80
2022-11-11T01:32:44.003Z,9.40
2022-11-11T01:35:30.610Z,11.30
2022-11-11T01:38:16.669Z,10.30
2022-11-11T01:41:23.082Z,11.50
2022-11-11T01:44:11.567Z,11.20
2022-11-11T01:47:01.738Z,8.40
2022-11-11T01:49:56.222Z,9.40
2022-11-11T01:52:45.006Z,9.60
2022-11-11T01:55:32.149Z,12.80
2022-11-11T01:58:19.445Z,10.70
2022-11-11T02:01:06.499Z,10.70
2022-11-11T02:04:13.324Z,12.90
2022-11-11T02:07:03.015Z,11.40
2022-11-11T02:09:53.214Z,8.80
2022-11-11T02:12:57.689Z,10.10
2022-11-11T02:15:44.581Z,11.40
2022-11-11T02:18:31.879Z,9.90
2022-11-11T02:21:49.124Z,11.70
2022-11-11T02:24:38.839Z,9.60
2022-11-11T02:27:28.438Z,11.60
2022-11-11T02:30:16.281Z,10.10
2022-11-11T02:33:01.976Z,10.40
2022-11-11T02:35:59.519Z,11.50
2022-11-11T02:38:47.343Z,10.60
2022-11-11T02:41:51.911Z,10.70
2022-11-11T02:44:40.301Z,8.30
2022-11-11T02:47:28.013Z,9.60
2022-11-11T02:50:15.317Z,10.80
2022-11-11T02:53:02.241Z,10.50
2022-11-11T02:55:48.640Z,10.80
2022-11-11T02:58:36.222Z,11.10
2022-11-11T03:01:25.676Z,10.20
2022-11-11T03:04:11.716Z,10.10
2022-11-11T03:06:58.003Z,10.60
2022-11-11T03:09:44.192Z,10.10
2022-11-11T03:12:30.263Z,10.40
2022-11-11T03:15:17.981Z,10.00
2022-11-11T03:18:04.220Z,10.90
2022-11-11T03:21:37.255Z,9.80
2022-11-11T03:24:12.459Z,10.10
2022-11-11T03:26:58.982Z,10.60
2022-11-11T03:29:46.281Z,10.10
2022-11-11T03:32:31.908Z,9.20
2022-11-11T03:35:17.479Z,9.10
2022-11-11T03:38:16.474Z,10.40
2022-11-11T03:41:02.370Z,9.60
2022-11-11T03:43:49.235Z,11.20
2022-11-11T03:46:34.958Z,10.00
2022-11-11T03:49:20.754Z,9.70
2022-11-11T03:52:06.430Z,11.30
2022-11-11T03:54:52.098Z,9.90
2022-11-11T03:57:42.815Z,11.10
2022-11-11T04:00:29.747Z,9.90
2022-11-11T04:03:38.331Z,9.10
2022-11-11T04:06:42.370Z,8.90
2022-11-11T04:09:46.528Z,8.30
2022-11-11T04:12:54.982Z,7.60
2022-11-11T04:15:59.064Z,7.90
2022-11-11T04:19:03.142Z,8.60
2022-11-11T04:21:49.743Z,8.40
2022-11-11T04:24:55.820Z,8.80
2022-11-11T04:27:41.496Z,7.90
2022-11-11T04:30:28.646Z,7.00
2022-11-11T04:33:14.362Z,9.30
2022-11-11T04:36:01.941Z,11.30
2022-11-11T04:39:09.175Z,6.90
2022-11-11T04:42:08.051Z,10.00
2022-11-11T04:45:14.800Z,8.30
2022-11-11T04:48:08.220Z,10.20
2022-11-11T04:50:53.923Z,8.00
2022-11-11T04:53:40.327Z,8.40
2022-11-11T04:56:45.667Z,9.10
2022-11-11T04:59:31.439Z,8.20
2022-11-11T05:02:35.706Z,8.80
2022-11-11T05:05:22.676Z,7.70
2022-11-11T05:08:27.750Z,9.00
2022-11-11T05:11:14.130Z,7.00
2022-11-11T05:14:21.125Z,12.30
2022-11-11T05:17:27.434Z,9.60
2022-11-11T05:20:37.567Z,9.70
2022-11-11T05:23:45.034Z,9.10
2022-11-11T05:26:32.905Z,9.30
2022-11-11T05:29:20.675Z,8.60
2022-11-11T05:32:08.094Z,8.00
2022-11-11T05:34:57.548Z,8.60
2022-11-11T05:38:08.198Z,9.30
2022-11-11T05:40:55.406Z,8.60
2022-11-11T05:43:42.499Z,8.70
2022-11-11T05:46:29.114Z,10.00
2022-11-11T05:49:16.233Z,9.20
2022-11-11T05:52:03.643Z,9.90
2022-11-11T05:54:50.896Z,8.20
2022-11-11T05:57:36.433Z,8.10
2022-11-11T06:00:26.082Z,8.20
2022-11-11T06:03:15.499Z,7.90
2022-11-11T06:06:01.355Z,7.60
2022-11-11T06:08:47.498Z,11.10
2022-11-11T06:11:34.339Z,7.70
2022-11-11T06:14:27.493Z,8.30
2022-11-11T06:17:15.712Z,7.90
2022-11-11T06:20:01.653Z,8.80
2022-11-11T06:22:57.880Z,8.70
2022-11-11T06:26:02.129Z,7.70
2022-11-11T06:28:48.920Z,8.20
2022-11-11T06:31:36.926Z,7.30
2022-11-11T06:34:23.110Z,8.90
2022-11-11T06:37:08.671Z,9.00
2022-11-11T06:39:54.331Z,7.90
2022-11-11T06:42:40.082Z,7.70
2022-11-11T06:45:31.278Z,8.20
2022-11-11T06:48:17.463Z,7.90
2022-11-11T06:51:05.848Z,8.20
2022-11-11T07:01:10.436Z,7.20
2022-11-11T07:03:56.665Z,7.50
2022-11-11T07:06:42.300Z,7.90
2022-11-11T07:09:29.082Z,8.10
2022-11-11T07:47:38.476Z,6.90
2022-11-11T07:50:25.988Z,7.70
2022-11-11T07:53:14.228Z,8.50
2022-11-11T07:56:01.233Z,8.00
2022-11-11T07:58:48.139Z,7.30
2022-11-11T08:01:33.809Z,7.40
2022-11-11T08:10:28.737Z,7.10
2022-11-11T08:13:32.506Z,8.90
2022-11-11T08:16:28.535Z,8.30
2022-11-11T08:19:15.016Z,8.40
2022-11-11T08:22:01.879Z,9.00
2022-11-11T08:25:04.851Z,7.10
2022-11-11T08:28:02.269Z,8.60
2022-11-11T08:30:50.418Z,8.80
2022-11-11T08:46:46.354Z,7.90
2022-11-11T08:49:34.794Z,7.80
2022-11-11T08:58:59.485Z,8.10
2022-11-11T09:01:51.449Z,7.50
2022-11-11T09:08:08.448Z,6.50
2022-11-11T09:10:57.509Z,7.40
2022-11-11T09:13:48.735Z,7.30
2022-11-11T09:16:42.041Z,5.90
2022-11-11T09:26:36.511Z,9.60
2022-11-11T09:29:22.491Z,6.50
2022-11-11T09:32:08.060Z,7.50
2022-11-11T09:35:00.839Z,7.40
2022-11-11T09:49:03.527Z,7.40
2022-11-11T10:06:09.329Z,9.80
2022-11-11T10:09:02.397Z,8.20
2022-11-11T10:12:13.846Z,11.10
2022-11-11T10:15:20.152Z,9.70
2022-11-11T10:22:35.110Z,10.40
2022-11-11T10:25:27.004Z,9.30
2022-11-11T10:28:20.928Z,6.70
2022-11-11T10:31:15.725Z,7.00
2022-11-11T10:34:19.839Z,6.80
2022-11-11T10:37:24.304Z,8.90
2022-11-11T10:40:25.399Z,6.70
2022-11-11T10:43:28.076Z,7.70
2022-11-11T10:46:42.620Z,7.30
2022-11-11T10:49:44.832Z,7.00
2022-11-11T10:52:46.683Z,8.40
2022-11-11T10:55:43.286Z,9.10
2022-11-11T10:59:03.272Z,7.70
2022-11-11T11:02:22.351Z,7.50
2022-11-11T11:05:22.480Z,7.80
2022-11-11T11:08:15.528Z,8.40
2022-11-11T11:11:21.461Z,8.60
2022-11-11T11:14:16.716Z,8.80
2022-11-11T11:17:14.441Z,8.40
2022-11-11T11:20:22.173Z,7.50
2022-11-11T11:23:09.255Z,10.20
2022-11-11T11:43:36.355Z,6.30
2022-11-11T11:46:30.591Z,6.70
2022-11-11T11:49:26.598Z,7.40
2022-11-11T11:52:42.641Z,8.10
2022-11-11T11:55:35.622Z,9.30
2022-11-11T11:58:42.621Z,9.70
2022-11-11T12:01:36.017Z,9.10
2022-11-11T12:04:30.582Z,8.30
2022-11-11T12:07:48.849Z,9.10
2022-11-11T12:11:00.053Z,7.60
2022-11-11T12:14:23.713Z,7.80
2022-11-11T12:17:37.072Z,8.30
2022-11-11T12:20:34.767Z,10.70
2022-11-11T12:24:03.449Z,12.40
2022-11-11T12:27:04.453Z,10.10
2022-11-11T12:30:21.447Z,7.40
2022-11-11T12:33:11.458Z,7.00
2022-11-11T12:36:22.411Z,8.50
2022-11-11T12:39:46.910Z,8.70
2022-11-11T12:42:58.840Z,7.90
2022-11-11T12:49:47.015Z,8.70
2022-11-11T12:52:43.821Z,8.80
2022-11-11T12:55:59.563Z,15.40
2022-11-11T12:58:55.655Z,9.50
2022-11-11T13:02:11.314Z,7.90
2022-11-11T13:05:34.447Z,9.00
2022-11-11T13:12:18.381Z,7.90
2022-11-11T13:22:29.518Z,8.90
2022-11-11T13:25:31.247Z,7.80
2022-11-11T13:28:30.095Z,8.90
2022-11-11T13:31:35.871Z,10.50
2022-11-11T13:34:34.913Z,7.60
2022-11-11T13:37:46.730Z,8.20
2022-11-11T13:40:46.120Z,9.20
2022-11-11T13:43:52.409Z,8.40
2022-11-11T13:47:22.659Z,7.30
2022-11-11T13:50:35.631Z,8.40
2022-11-11T13:53:36.689Z,8.60
2022-11-11T13:57:10.849Z,7.80
2022-11-11T14:00:10.950Z,8.00
2022-11-11T14:03:33.452Z,8.50
2022-11-11T14:06:55.289Z,8.90
2022-11-11T14:24:22.577Z,10.80
2022-11-11T14:27:22.053Z,9.30
2022-11-11T14:30:26.468Z,7.90
2022-11-11T14:33:34.226Z,10.00
2022-11-11T14:36:39.716Z,8.80
2022-11-11T14:39:43.540Z,9.60
2022-11-11T14:42:35.245Z,9.00
2022-11-11T14:45:26.778Z,8.70
2022-11-11T14:48:48.738Z,9.50
2022-11-11T14:51:48.478Z,8.20
2022-11-11T14:55:09.987Z,8.80
2022-11-11T14:58:06.604Z,7.70
2022-11-11T15:26:15.669Z,9.60
2022-11-11T16:07:34.896Z,11.90
2022-11-11T16:14:07.961Z,10.10
2022-11-11T16:17:17.013Z,9.40
2022-11-11T17:11:43.108Z,8.20
2022-11-11T17:21:22.918Z,10.90
2022-11-11T17:24:09.781Z,9.30
2022-11-11T17:34:09.355Z,9.90
2022-11-11T18:36:22.846Z,12.90
2022-11-11T18:39:10.807Z,11.90
2022-11-11T18:41:58.943Z,10.90
2022-11-11T18:44:46.367Z,12.00
2022-11-11T18:47:34.154Z,11.80
2022-11-11T18:50:22.248Z,10.00
2022-11-11T18:53:10.354Z,12.10
2022-11-11T18:56:08.163Z,10.10
2022-11-11T18:59:00.433Z,11.10
2022-11-11T19:01:51.680Z,11.90
2022-11-11T19:04:49.185Z,10.80
2022-11-11T19:14:55.211Z,17.40
2022-11-11T19:17:44.628Z,12.80
2022-11-11T19:20:31.641Z,12.00
2022-11-11T19:23:18.488Z,21.50
2022-11-11T19:26:07.134Z,14.20
2022-11-11T19:28:56.451Z,14.00
2022-11-11T19:31:45.307Z,11.40
2022-11-11T19:34:32.836Z,9.80
2022-11-11T19:37:32.957Z,14.50
2022-11-11T19:40:22.607Z,10.50
2022-11-11T19:43:10.658Z,11.00
2022-11-11T19:46:00.395Z,18.90
2022-11-11T19:48:53.270Z,14.10
2022-11-11T19:51:46.281Z,24.90
2022-11-11T19:58:33.232Z,12.40
2022-11-11T20:01:25.057Z,13.40
2022-11-11T20:04:14.518Z,13.70
2022-11-11T20:07:04.212Z,14.50
2022-11-11T20:09:52.612Z,14.10
2022-11-11T20:12:43.252Z,13.00
2022-11-11T20:15:30.852Z,11.50
2022-11-11T20:18:16.803Z,11.60
2022-11-11T20:21:06.187Z,11.30
2022-11-11T20:23:55.553Z,9.70
2022-11-11T20:26:43.218Z,10.60
2022-11-11T20:29:32.437Z,11.40
2022-11-11T20:32:19.857Z,13.00
2022-11-11T20:35:08.216Z,13.60
2022-11-11T20:37:56.070Z,10.50
2022-11-11T20:40:42.760Z,11.00
2022-11-11T20:43:31.280Z,10.40
2022-11-11T20:46:20.300Z,8.00
2022-11-11T20:49:07.404Z,9.50
2022-11-11T20:51:55.828Z,10.00
2022-11-11T20:54:42.444Z,11.10
2022-11-11T20:57:31.570Z,11.40
2022-11-11T21:00:20.008Z,11.20
2022-11-11T21:03:09.949Z,10.10
2022-11-11T21:06:01.526Z,12.20
2022-11-11T21:08:49.484Z,10.30
2022-11-11T21:11:36.468Z,11.40
2022-11-11T21:14:24.266Z,10.60
2022-11-11T21:17:28.139Z,9.30
2022-11-11T21:20:23.441Z,13.30
2022-11-11T21:23:57.842Z,10.00
2022-11-11T21:26:47.201Z,13.40
2022-11-11T21:29:41.632Z,11.30
2022-11-11T21:32:29.173Z,11.70
2022-11-11T21:36:11.309Z,12.30
2022-11-11T21:39:19.950Z,12.10
2022-11-11T21:42:09.696Z,10.30
2022-11-11T21:58:32.326Z,10.40
2022-11-11T22:01:27.538Z,9.70
2022-11-11T22:04:21.916Z,9.60
2022-11-11T22:07:09.506Z,8.40
2022-11-11T22:09:55.429Z,10.40
2022-11-11T22:12:41.018Z,10.00
2022-11-11T22:15:27.567Z,6.40
2022-11-11T22:18:14.158Z,11.30
2022-11-11T22:21:11.787Z,11.70
2022-11-11T22:24:01.299Z,13.10
2022-11-11T22:26:50.609Z,9.50
2022-11-11T22:29:36.578Z,11.80
2022-11-11T22:32:23.307Z,10.30
2022-11-11T22:35:09.414Z,9.30
2022-11-11T22:37:54.960Z,10.40
2022-11-11T22:40:41.969Z,11.00
2022-11-11T22:43:57.881Z,10.20
2022-11-11T22:46:37.643Z,7.70
2022-11-11T22:49:24.601Z,9.70
2022-11-11T22:52:10.908Z,10.80
2022-11-11T22:54:57.038Z,10.30
2022-11-11T22:58:03.832Z,9.50
2022-11-11T23:03:44.160Z,12.70
2022-11-11T23:06:41.683Z,10.80
2022-11-11T23:09:39.548Z,11.10
2022-11-11T23:12:56.018Z,9.80
2022-11-11T23:36:40.975Z,10.60
2022-11-11T23:39:29.718Z,10.50
2022-11-11T23:42:17.087Z,9.30
2022-11-11T23:45:03.211Z,9.90
2022-11-11T23:47:48.796Z,8.10
2022-11-11T23:50:35.688Z,11.00
2022-11-11T23:53:22.340Z,11.20
2022-11-11T23:56:08.048Z,9.50
2022-11-11T23:58:54.686Z,10.00
